sensor_id;sensor_type;location;lat;lon;timestamp;pressure;altitude;pressure_sealevel;temperature;humidity
39739;BME280;25422;48.286;8.484;2023-05-11T00:01:41;93908.22;;;7.05;100.00
39739;BME280;25422;48.286;8.484;2023-05-11T00:04:07;93913.09;;;7.08;100.00
39739;BME280;25422;48.286;8.484;2023-05-11T00:06:33;93913.75;;;7.11;100.00
39739;BME280;25422;48.286;8.484;2023-05-11T00:08:58;93911.16;;;7.11;100.00
39739;BME280;25422;48.286;8.484;2023-05-11T00:11:23;93915.06;;;7.15;100.00
39739;BME280;25422;48.286;8.484;2023-05-11T00:13:49;93912.34;;;7.16;100.00
39739;BME280;25422;48.286;8.484;2023-05-11T00:16:14;93903.91;;;7.22;100.00
39739;BME280;25422;48.286;8.484;2023-05-11T00:18:40;93903.09;;;7.22;100.00
39739;BME280;25422;48.286;8.484;2023-05-11T00:21:05;93901.97;;;7.24;100.00
39739;BME280;25422;48.286;8.484;2023-05-11T00:23:30;93900.97;;;7.25;100.00
39739;BME280;25422;48.286;8.484;2023-05-11T00:25:56;93903.44;;;7.27;100.00
39739;BME280;25422;48.286;8.484;2023-05-11T00:28:21;93900.84;;;7.27;100.00
39739;BME280;25422;48.286;8.484;2023-05-11T00:30:47;93905.25;;;7.35;100.00
39739;BME280;25422;48.286;8.484;2023-05-11T00:33:13;93905.72;;;7.30;100.00
39739;BME280;25422;48.286;8.484;2023-05-11T00:35:39;93895.97;;;7.32;100.00
39739;BME280;25422;48.286;8.484;2023-05-11T00:38:04;93896.63;;;7.34;100.00
39739;BME280;25422;48.286;8.484;2023-05-11T00:40:30;93901.53;;;7.37;100.00
39739;BME280;25422;48.286;8.484;2023-05-11T00:42:56;93891.91;;;7.38;100.00
39739;BME280;25422;48.286;8.484;2023-05-11T00:45:22;93889.97;;;7.40;100.00
39739;BME280;25422;48.286;8.484;2023-05-11T00:47:48;93899.59;;;7.39;100.00
39739;BME280;25422;48.286;8.484;2023-05-11T00:50:14;93894.50;;;7.38;100.00
39739;BME280;25422;48.286;8.484;2023-05-11T00:52:40;93886.72;;;7.38;100.00
39739;BME280;25422;48.286;8.484;2023-05-11T00:55:06;93891.09;;;7.37;100.00
39739;BME280;25422;48.286;8.484;2023-05-11T00:57:32;93890.59;;;7.34;100.00
39739;BME280;25422;48.286;8.484;2023-05-11T01:00:00;93898.72;;;7.31;100.00
39739;BME280;25422;48.286;8.484;2023-05-11T01:02:26;93894.47;;;7.30;100.00
39739;BME280;25422;48.286;8.484;2023-05-11T01:04:52;93887.97;;;7.25;100.00
39739;BME280;25422;48.286;8.484;2023-05-11T01:15:38;93890.72;;;7.24;100.00
39739;BME280;25422;48.286;8.484;2023-05-11T01:18:40;93893.13;;;7.17;100.00
39739;BME280;25422;48.286;8.484;2023-05-11T01:21:13;93891.66;;;7.15;100.00
39739;BME280;25422;48.286;8.484;2023-05-11T01:29:29;93882.53;;;7.11;100.00
39739;BME280;25422;48.286;8.484;2023-05-11T01:32:03;93880.75;;;7.11;100.00
39739;BME280;25422;48.286;8.484;2023-05-11T01:34:31;93885.97;;;7.11;100.00
39739;BME280;25422;48.286;8.484;2023-05-11T01:37:05;93878.59;;;7.06;100.00
39739;BME280;25422;48.286;8.484;2023-05-11T01:39:37;93877.00;;;7.05;100.00
39739;BME280;25422;48.286;8.484;2023-05-11T01:42:08;93875.03;;;7.07;100.00
39739;BME280;25422;48.286;8.484;2023-05-11T01:44:36;93876.84;;;7.07;100.00
39739;BME280;25422;48.286;8.484;2023-05-11T01:47:03;93883.53;;;7.09;100.00
39739;BME280;25422;48.286;8.484;2023-05-11T01:49:32;93879.13;;;7.10;100.00
39739;BME280;25422;48.286;8.484;2023-05-11T01:52:01;93873.13;;;7.09;100.00
39739;BME280;25422;48.286;8.484;2023-05-11T01:54:29;93877.31;;;7.11;100.00
39739;BME280;25422;48.286;8.484;2023-05-11T01:56:57;93882.69;;;7.09;100.00
39739;BME280;25422;48.286;8.484;2023-05-11T01:59:25;93879.59;;;7.05;100.00
39739;BME280;25422;48.286;8.484;2023-05-11T02:01:51;93883.81;;;7.06;100.00
39739;BME280;25422;48.286;8.484;2023-05-11T02:04:20;93876.00;;;7.06;100.00
39739;BME280;25422;48.286;8.484;2023-05-11T02:06:47;93875.38;;;7.04;100.00
39739;BME280;25422;48.286;8.484;2023-05-11T02:09:15;93877.00;;;7.05;100.00
39739;BME280;25422;48.286;8.484;2023-05-11T02:11:43;93879.59;;;7.05;100.00
39739;BME280;25422;48.286;8.484;2023-05-11T02:14:10;93877.66;;;7.07;100.00
39739;BME280;25422;48.286;8.484;2023-05-11T02:16:37;93868.19;;;7.06;100.00
39739;BME280;25422;48.286;8.484;2023-05-11T02:19:04;93882.19;;;7.05;100.00
39739;BME280;25422;48.286;8.484;2023-05-11T02:21:31;93882.84;;;7.07;100.00
39739;BME280;25422;48.286;8.484;2023-05-11T02:24:00;93878.31;;;7.09;100.00
39739;BME280;25422;48.286;8.484;2023-05-11T02:26:27;93875.72;;;7.09;100.00
39739;BME280;25422;48.286;8.484;2023-05-11T02:28:53;93884.31;;;7.10;100.00
39739;BME280;25422;48.286;8.484;2023-05-11T02:31:21;93879.94;;;7.11;100.00
39739;BME280;25422;48.286;8.484;2023-05-11T02:33:49;93884.16;;;7.12;100.00
39739;BME280;25422;48.286;8.484;2023-05-11T02:36:20;93887.72;;;7.11;100.00
39739;BME280;25422;48.286;8.484;2023-05-11T02:38:49;93882.53;;;7.11;100.00
39739;BME280;25422;48.286;8.484;2023-05-11T02:41:25;93881.88;;;7.08;100.00
39739;BME280;25422;48.286;8.484;2023-05-11T02:43:54;93875.03;;;7.07;100.00
39739;BME280;25422;48.286;8.484;2023-05-11T02:46:25;93877.47;;;7.09;100.00
39739;BME280;25422;48.286;8.484;2023-05-11T02:48:55;93877.81;;;7.06;100.00
39739;BME280;25422;48.286;8.484;2023-05-11T02:51:30;93867.72;;;7.03;100.00
39739;BME280;25422;48.286;8.484;2023-05-11T02:53:58;93876.31;;;7.03;100.00
39739;BME280;25422;48.286;8.484;2023-05-11T02:56:26;93872.75;;;7.04;100.00
39739;BME280;25422;48.286;8.484;2023-05-11T02:58:53;93868.03;;;7.08;100.00
39739;BME280;25422;48.286;8.484;2023-05-11T03:01:23;93870.81;;;7.06;100.00
39739;BME280;25422;48.286;8.484;2023-05-11T03:03:49;93871.28;;;7.02;100.00
39739;BME280;25422;48.286;8.484;2023-05-11T03:06:14;93874.69;;;7.02;100.00
39739;BME280;25422;48.286;8.484;2023-05-11T03:08:40;93873.09;;;7.01;100.00
39739;BME280;25422;48.286;8.484;2023-05-11T03:11:07;93875.69;;;7.01;100.00
39739;BME280;25422;48.286;8.484;2023-05-11T03:13:33;93865.28;;;7.01;100.00
39739;BME280;25422;48.286;8.484;2023-05-11T03:16:02;93860.06;;;7.01;100.00
39739;BME280;25422;48.286;8.484;2023-05-11T03:18:31;93867.72;;;7.03;100.00
39739;BME280;25422;48.286;8.484;2023-05-11T03:20:58;93857.31;;;7.03;100.00
39739;BME280;25422;48.286;8.484;2023-05-11T03:23:25;93865.91;;;7.03;100.00
39739;BME280;25422;48.286;8.484;2023-05-11T03:25:51;93868.53;;;7.03;100.00
39739;BME280;25422;48.286;8.484;2023-05-11T03:28:18;93861.69;;;7.02;100.00
39739;BME280;25422;48.286;8.484;2023-05-11T03:30:54;93862.34;;;7.04;100.00
39739;BME280;25422;48.286;8.484;2023-05-11T03:33:20;93859.75;;;7.04;100.00
39739;BME280;25422;48.286;8.484;2023-05-11T03:35:48;93859.59;;;7.06;100.00
39739;BME280;25422;48.286;8.484;2023-05-11T03:38:21;93858.78;;;7.05;100.00
39739;BME280;25422;48.286;8.484;2023-05-11T03:40:50;93859.91;;;7.03;100.00
39739;BME280;25422;48.286;8.484;2023-05-11T03:43:18;93857.47;;;7.01;100.00
39739;BME280;25422;48.286;8.484;2023-05-11T03:45:49;93861.31;;;6.97;100.00
39739;BME280;25422;48.286;8.484;2023-05-11T03:48:17;93858.88;;;6.96;100.00
39739;BME280;25422;48.286;8.484;2023-05-11T03:50:43;93859.72;;;6.96;100.00
39739;BME280;25422;48.286;8.484;2023-05-11T03:53:10;93854.34;;;6.98;100.00
39739;BME280;25422;48.286;8.484;2023-05-11T03:55:36;93851.59;;;6.99;100.00
39739;BME280;25422;48.286;8.484;2023-05-11T03:58:06;93849.00;;;6.99;100.00
39739;BME280;25422;48.286;8.484;2023-05-11T04:00:31;93850.47;;;7.02;100.00
39739;BME280;25422;48.286;8.484;2023-05-11T04:02:57;93847.88;;;7.02;100.00
39739;BME280;25422;48.286;8.484;2023-05-11T04:05:26;93847.72;;;7.03;100.00
39739;BME280;25422;48.286;8.484;2023-05-11T04:07:51;93843.47;;;7.02;100.00
39739;BME280;25422;48.286;8.484;2023-05-11T04:10:17;93849.03;;;7.07;100.00
39739;BME280;25422;48.286;8.484;2023-05-11T04:12:42;93846.59;;;7.06;100.00
39739;BME280;25422;48.286;8.484;2023-05-11T04:15:08;93847.41;;;7.06;100.00
39739;BME280;25422;48.286;8.484;2023-05-11T04:17:34;93845.16;;;7.12;100.00
39739;BME280;25422;48.286;8.484;2023-05-11T04:19:59;93841.75;;;7.11;100.00
39739;BME280;25422;48.286;8.484;2023-05-11T04:22:24;93842.22;;;7.15;100.00
39739;BME280;25422;48.286;8.484;2023-05-11T04:24:50;93838.50;;;7.17;100.00
39739;BME280;25422;48.286;8.484;2023-05-11T04:27:15;93845.34;;;7.18;100.00
39739;BME280;25422;48.286;8.484;2023-05-11T04:29:41;93848.28;;;7.23;100.00
39739;BME280;25422;48.286;8.484;2023-05-11T04:32:06;93850.91;;;7.23;100.00
39739;BME280;25422;48.286;8.484;2023-05-11T04:34:31;93854.28;;;7.24;100.00
39739;BME280;25422;48.286;8.484;2023-05-11T04:36:57;93843.72;;;7.25;100.00
39739;BME280;25422;48.286;8.484;2023-05-11T04:39:23;93849.94;;;7.24;100.00
39739;BME280;25422;48.286;8.484;2023-05-11T04:41:49;93851.84;;;7.22;100.00
39739;BME280;25422;48.286;8.484;2023-05-11T04:44:14;93847.78;;;7.20;100.00
39739;BME280;25422;48.286;8.484;2023-05-11T04:46:40;93858.84;;;7.22;100.00
39739;BME280;25422;48.286;8.484;2023-05-11T04:49:06;93849.41;;;7.21;100.00
39739;BME280;25422;48.286;8.484;2023-05-11T04:51:33;93856.25;;;7.22;100.00
39739;BME280;25422;48.286;8.484;2023-05-11T04:53:58;93853.50;;;7.23;100.00
39739;BME280;25422;48.286;8.484;2023-05-11T04:56:24;93862.44;;;7.29;100.00
39739;BME280;25422;48.286;8.484;2023-05-11T04:58:50;93867.34;;;7.32;100.00
39739;BME280;25422;48.286;8.484;2023-05-11T05:01:16;93860.19;;;7.34;100.00
39739;BME280;25422;48.286;8.484;2023-05-11T05:03:41;93857.28;;;7.37;100.00
39739;BME280;25422;48.286;8.484;2023-05-11T05:06:06;93857.13;;;7.39;100.00
39739;BME280;25422;48.286;8.484;2023-05-11T05:08:32;93855.47;;;7.38;100.00
39739;BME280;25422;48.286;8.484;2023-05-11T05:10:58;93857.28;;;7.37;100.00
39739;BME280;25422;48.286;8.484;2023-05-11T05:13:24;93864.13;;;7.47;100.00
39739;BME280;25422;48.286;8.484;2023-05-11T05:15:50;93861.53;;;7.47;100.00
39739;BME280;25422;48.286;8.484;2023-05-11T05:18:15;93857.97;;;7.48;100.00
39739;BME280;25422;48.286;8.484;2023-05-11T05:20:43;93856.69;;;7.52;100.00
39739;BME280;25422;48.286;8.484;2023-05-11T05:23:08;93850.16;;;7.48;100.00
39739;BME280;25422;48.286;8.484;2023-05-11T05:25:33;93856.84;;;7.50;100.00
39739;BME280;25422;48.286;8.484;2023-05-11T05:27:59;93850.81;;;7.50;100.00
39739;BME280;25422;48.286;8.484;2023-05-11T05:30:25;93861.22;;;7.58;100.00
39739;BME280;25422;48.286;8.484;2023-05-11T05:32:51;93850.66;;;7.59;100.00
39739;BME280;25422;48.286;8.484;2023-05-11T05:35:18;93855.25;;;7.74;100.00
39739;BME280;25422;48.286;8.484;2023-05-11T05:37:44;93860.47;;;7.90;100.00
39739;BME280;25422;48.286;8.484;2023-05-11T05:40:10;93858.38;;;7.86;100.00
39739;BME280;25422;48.286;8.484;2023-05-11T05:42:41;93858.22;;;7.87;100.00
39739;BME280;25422;48.286;8.484;2023-05-11T05:45:09;93861.97;;;8.01;100.00
39739;BME280;25422;48.286;8.484;2023-05-11T05:47:35;93854.97;;;7.93;100.00
39739;BME280;25422;48.286;8.484;2023-05-11T05:50:00;93863.75;;;8.01;100.00
39739;BME280;25422;48.286;8.484;2023-05-11T05:52:27;93864.91;;;8.06;100.00
39739;BME280;25422;48.286;8.484;2023-05-11T05:54:53;93867.00;;;8.11;100.00
39739;BME280;25422;48.286;8.484;2023-05-11T05:57:18;93865.88;;;8.14;100.00
39739;BME280;25422;48.286;8.484;2023-05-11T05:59:44;93862.81;;;8.18;100.00
39739;BME280;25422;48.286;8.484;2023-05-11T06:02:10;93862.97;;;8.33;100.00
39739;BME280;25422;48.286;8.484;2023-05-11T06:04:37;93866.22;;;8.27;100.00
39739;BME280;25422;48.286;8.484;2023-05-11T06:07:03;93865.56;;;8.25;100.00
39739;BME280;25422;48.286;8.484;2023-05-11T06:09:28;93875.31;;;8.39;100.00
39739;BME280;25422;48.286;8.484;2023-05-11T06:11:54;93872.59;;;8.49;100.00
39739;BME280;25422;48.286;8.484;2023-05-11T06:14:22;93869.16;;;8.49;100.00
39739;BME280;25422;48.286;8.484;2023-05-11T06:16:48;93871.59;;;8.67;100.00
39739;BME280;25422;48.286;8.484;2023-05-11T06:19:13;93874.66;;;8.87;100.00
39739;BME280;25422;48.286;8.484;2023-05-11T06:21:40;93876.63;;;8.85;100.00
39739;BME280;25422;48.286;8.484;2023-05-11T06:24:07;93871.09;;;8.80;100.00
39739;BME280;25422;48.286;8.484;2023-05-11T06:26:34;93876.13;;;8.89;100.00
39739;BME280;25422;48.286;8.484;2023-05-11T06:29:00;93866.38;;;8.75;100.00
39739;BME280;25422;48.286;8.484;2023-05-11T06:31:26;93873.91;;;8.45;100.00
39739;BME280;25422;48.286;8.484;2023-05-11T06:33:52;93867.22;;;8.34;100.00
39739;BME280;25422;48.286;8.484;2023-05-11T06:36:24;93869.16;;;8.40;100.00
39739;BME280;25422;48.286;8.484;2023-05-11T06:38:49;93871.75;;;8.24;100.00
39739;BME280;25422;48.286;8.484;2023-05-11T06:41:15;93871.09;;;8.14;100.00
39739;BME280;25422;48.286;8.484;2023-05-11T06:43:40;93863.94;;;8.07;100.00
39739;BME280;25422;48.286;8.484;2023-05-11T06:46:17;93871.75;;;8.07;100.00
39739;BME280;25422;48.286;8.484;2023-05-11T06:48:43;93870.28;;;8.13;100.00
39739;BME280;25422;48.286;8.484;2023-05-11T06:51:09;93868.81;;;8.19;100.00
39739;BME280;25422;48.286;8.484;2023-05-11T06:53:35;93868.34;;;8.23;100.00
39739;BME280;25422;48.286;8.484;2023-05-11T06:56:01;93863.44;;;8.28;100.00
39739;BME280;25422;48.286;8.484;2023-05-11T06:58:26;93864.91;;;8.06;100.00
39739;BME280;25422;48.286;8.484;2023-05-11T07:00:51;93859.53;;;8.08;100.00
39739;BME280;25422;48.286;8.484;2023-05-11T07:03:17;93866.22;;;8.02;100.00
39739;BME280;25422;48.286;8.484;2023-05-11T07:05:42;93863.59;;;8.02;100.00
39739;BME280;25422;48.286;8.484;2023-05-11T07:08:08;93868.81;;;8.02;100.00
39739;BME280;25422;48.286;8.484;2023-05-11T07:10:33;93874.34;;;7.99;100.00
39739;BME280;25422;48.286;8.484;2023-05-11T07:12:59;93870.63;;;8.10;100.00
39739;BME280;25422;48.286;8.484;2023-05-11T07:15:24;93883.47;;;8.20;100.00
39739;BME280;25422;48.286;8.484;2023-05-11T07:17:50;93874.53;;;8.22;100.00
39739;BME280;25422;48.286;8.484;2023-05-11T07:20:16;93878.94;;;8.38;100.00
39739;BME280;25422;48.286;8.484;2023-05-11T07:22:42;93879.56;;;8.32;100.00
39739;BME280;25422;48.286;8.484;2023-05-11T07:25:07;93879.41;;;8.34;100.00
39739;BME280;25422;48.286;8.484;2023-05-11T07:27:34;93876.00;;;8.25;100.00
39739;BME280;25422;48.286;8.484;2023-05-11T07:29:59;93876.63;;;8.35;100.00
39739;BME280;25422;48.286;8.484;2023-05-11T07:32:24;93878.91;;;8.05;100.00
39739;BME280;25422;48.286;8.484;2023-05-11T07:34:50;93877.78;;;8.16;100.00
39739;BME280;25422;48.286;8.484;2023-05-11T07:37:15;93877.47;;;8.44;100.00
39739;BME280;25422;48.286;8.484;2023-05-11T07:39:40;93880.25;;;8.59;100.00
39739;BME280;25422;48.286;8.484;2023-05-11T07:42:06;93875.53;;;8.46;100.00
39739;BME280;25422;48.286;8.484;2023-05-11T07:44:31;93879.94;;;8.46;100.00
39739;BME280;25422;48.286;8.484;2023-05-11T07:46:57;93887.41;;;8.57;100.00
39739;BME280;25422;48.286;8.484;2023-05-11T07:49:22;93884.31;;;8.62;100.00
39739;BME280;25422;48.286;8.484;2023-05-11T07:51:48;93881.88;;;8.68;100.00
39739;BME280;25422;48.286;8.484;2023-05-11T07:54:14;93888.38;;;8.56;100.00
39739;BME280;25422;48.286;8.484;2023-05-11T07:56:40;93884.50;;;8.60;100.00
39739;BME280;25422;48.286;8.484;2023-05-11T07:59:06;93879.59;;;8.57;100.00
39739;BME280;25422;48.286;8.484;2023-05-11T08:01:31;93883.50;;;8.61;100.00
39739;BME280;25422;48.286;8.484;2023-05-11T08:03:56;93884.13;;;8.80;100.00
39739;BME280;25422;48.286;8.484;2023-05-11T08:06:22;93875.97;;;8.74;100.00
39739;BME280;25422;48.286;8.484;2023-05-11T08:08:47;93879.72;;;8.72;100.00
39739;BME280;25422;48.286;8.484;2023-05-11T08:11:13;93876.78;;;8.42;100.00
39739;BME280;25422;48.286;8.484;2023-05-11T08:13:38;93878.59;;;8.41;100.00
39739;BME280;25422;48.286;8.484;2023-05-11T08:16:04;93888.53;;;8.63;100.00
39739;BME280;25422;48.286;8.484;2023-05-11T08:18:30;93879.59;;;8.49;100.00
39739;BME280;25422;48.286;8.484;2023-05-11T08:20:55;93882.34;;;8.39;100.00
39739;BME280;25422;48.286;8.484;2023-05-11T08:23:21;93884.16;;;8.38;100.00
39739;BME280;25422;48.286;8.484;2023-05-11T08:25:53;93881.22;;;8.33;100.00
39739;BME280;25422;48.286;8.484;2023-05-11T08:28:20;93877.63;;;8.42;100.00
39739;BME280;25422;48.286;8.484;2023-05-11T08:30:45;93879.91;;;8.37;100.00
39739;BME280;25422;48.286;8.484;2023-05-11T08:33:12;93885.16;;;8.46;100.00
39739;BME280;25422;48.286;8.484;2023-05-11T08:35:38;93885.94;;;8.46;100.00
39739;BME280;25422;48.286;8.484;2023-05-11T08:38:04;93889.03;;;8.58;100.00
39739;BME280;25422;48.286;8.484;2023-05-11T08:40:30;93889.53;;;8.62;100.00
39739;BME280;25422;48.286;8.484;2023-05-11T08:42:58;93880.41;;;8.66;100.00
39739;BME280;25422;48.286;8.484;2023-05-11T08:45:25;93880.69;;;8.87;100.00
39739;BME280;25422;48.286;8.484;2023-05-11T08:47:51;93882.28;;;9.13;100.00
39739;BME280;25422;48.286;8.484;2023-05-11T08:50:17;93884.50;;;9.24;100.00
39739;BME280;25422;48.286;8.484;2023-05-11T08:52:43;93877.84;;;9.14;100.00
39739;BME280;25422;48.286;8.484;2023-05-11T08:55:09;93875.31;;;8.89;100.00
39739;BME280;25422;48.286;8.484;2023-05-11T08:57:34;93878.50;;;9.07;100.00
39739;BME280;25422;48.286;8.484;2023-05-11T09:00:01;93876.03;;;9.31;100.00
39739;BME280;25422;48.286;8.484;2023-05-11T09:02:27;93875.91;;;9.16;100.00
39739;BME280;25422;48.286;8.484;2023-05-11T09:04:53;93872.34;;;9.00;100.00
39739;BME280;25422;48.286;8.484;2023-05-11T09:07:20;93868.41;;;9.04;100.00
39739;BME280;25422;48.286;8.484;2023-05-11T09:09:48;93869.06;;;9.06;100.00
39739;BME280;25422;48.286;8.484;2023-05-11T09:12:15;93860.69;;;9.59;100.00
39739;BME280;25422;48.286;8.484;2023-05-11T09:14:41;93876.22;;;9.60;100.00
39739;BME280;25422;48.286;8.484;2023-05-11T09:17:07;93872.84;;;9.43;100.00
39739;BME280;25422;48.286;8.484;2023-05-11T09:19:33;93874.56;;;9.28;100.00
39739;BME280;25422;48.286;8.484;2023-05-11T09:21:58;93870.03;;;9.14;100.00
39739;BME280;25422;48.286;8.484;2023-05-11T09:24:24;93860.91;;;9.09;100.00
39739;BME280;25422;48.286;8.484;2023-05-11T09:27:05;93868.34;;;9.21;100.00
39739;BME280;25422;48.286;8.484;2023-05-11T09:29:32;93861.50;;;9.28;100.00
39739;BME280;25422;48.286;8.484;2023-05-11T09:31:57;93870.31;;;9.27;100.00
39739;BME280;25422;48.286;8.484;2023-05-11T09:34:22;93872.88;;;9.35;100.00
39739;BME280;25422;48.286;8.484;2023-05-11T09:36:52;93860.59;;;9.52;100.00
39739;BME280;25422;48.286;8.484;2023-05-11T09:39:33;93859.75;;;9.52;100.00
39739;BME280;25422;48.286;8.484;2023-05-11T09:42:14;93862.00;;;9.63;100.00
39739;BME280;25422;48.286;8.484;2023-05-11T09:44:41;93858.59;;;9.86;100.00
39739;BME280;25422;48.286;8.484;2023-05-11T09:47:15;93856.56;;;10.19;100.00
39739;BME280;25422;48.286;8.484;2023-05-11T09:49:41;93862.84;;;9.87;100.00
39739;BME280;25422;48.286;8.484;2023-05-11T09:52:11;93853.97;;;9.96;100.00
39739;BME280;25422;48.286;8.484;2023-05-11T09:54:44;93850.75;;;10.32;100.00
39739;BME280;25422;48.286;8.484;2023-05-11T09:57:27;93851.22;;;10.12;100.00
39739;BME280;25422;48.286;8.484;2023-05-11T09:59:54;93849.75;;;10.33;100.00
39739;BME280;25422;48.286;8.484;2023-05-11T10:02:30;93855.34;;;10.30;100.00
39739;BME280;25422;48.286;8.484;2023-05-11T10:04:58;93845.75;;;10.45;100.00
39739;BME280;25422;48.286;8.484;2023-05-11T10:07:28;93854.31;;;10.16;100.00
39739;BME280;25422;48.286;8.484;2023-05-11T10:09:55;93847.03;;;10.50;100.00
39739;BME280;25422;48.286;8.484;2023-05-11T10:12:22;93843.69;;;10.18;100.00
39739;BME280;25422;48.286;8.484;2023-05-11T10:14:51;93851.56;;;10.33;100.00
39739;BME280;25422;48.286;8.484;2023-05-11T10:17:17;93856.88;;;11.16;100.00
39739;BME280;25422;48.286;8.484;2023-05-11T10:19:44;93848.81;;;11.17;100.00
39739;BME280;25422;48.286;8.484;2023-05-11T10:22:10;93849.19;;;11.44;100.00
39739;BME280;25422;48.286;8.484;2023-05-11T10:24:35;93851.06;;;11.20;100.00
39739;BME280;25422;48.286;8.484;2023-05-11T10:27:01;93848.00;;;10.87;100.00
39739;BME280;25422;48.286;8.484;2023-05-11T10:29:28;93844.19;;;10.59;100.00
39739;BME280;25422;48.286;8.484;2023-05-11T10:31:56;93838.41;;;10.64;100.00
39739;BME280;25422;48.286;8.484;2023-05-11T10:34:23;93842.00;;;10.63;100.00
39739;BME280;25422;48.286;8.484;2023-05-11T10:36:51;93843.84;;;10.77;100.00
39739;BME280;25422;48.286;8.484;2023-05-11T10:39:17;93842.13;;;10.70;100.00
39739;BME280;25422;48.286;8.484;2023-05-11T10:44:54;93834.94;;;10.87;100.00
39739;BME280;25422;48.286;8.484;2023-05-11T10:56:16;93824.38;;;11.61;100.00
39739;BME280;25422;48.286;8.484;2023-05-11T10:58:58;93821.41;;;11.64;100.00
39739;BME280;25422;48.286;8.484;2023-05-11T11:01:37;93813.03;;;11.39;100.00
39739;BME280;25422;48.286;8.484;2023-05-11T11:04:08;93824.00;;;11.28;100.00
39739;BME280;25422;48.286;8.484;2023-05-11T11:06:36;93819.44;;;10.62;100.00
39739;BME280;25422;48.286;8.484;2023-05-11T11:09:11;93825.50;;;10.62;100.00
39739;BME280;25422;48.286;8.484;2023-05-11T11:11:44;93816.84;;;10.77;100.00
39739;BME280;25422;48.286;8.484;2023-05-11T11:14:11;93813.88;;;10.27;100.00
39739;BME280;25422;48.286;8.484;2023-05-11T11:16:38;93827.66;;;9.74;100.00
39739;BME280;25422;48.286;8.484;2023-05-11T11:21:55;93826.72;;;9.27;100.00
39739;BME280;25422;48.286;8.484;2023-05-11T11:27:03;93833.53;;;9.05;100.00
39739;BME280;25422;48.286;8.484;2023-05-11T11:29:29;93825.13;;;9.18;100.00
39739;BME280;25422;48.286;8.484;2023-05-11T11:31:55;93832.56;;;9.38;100.00
39739;BME280;25422;48.286;8.484;2023-05-11T11:34:40;93830.09;;;9.44;100.00
39739;BME280;25422;48.286;8.484;2023-05-11T11:37:06;93828.16;;;9.38;100.00
39739;BME280;25422;48.286;8.484;2023-05-11T11:42:08;93815.19;;;9.53;100.00
39739;BME280;25422;48.286;8.484;2023-05-11T11:44:33;93810.25;;;9.58;100.00
39739;BME280;25422;48.286;8.484;2023-05-11T11:47:15;93812.09;;;9.81;100.00
39739;BME280;25422;48.286;8.484;2023-05-11T11:49:43;93815.06;;;10.01;100.00
39739;BME280;25422;48.286;8.484;2023-05-11T11:54:53;93808.09;;;10.70;100.00
39739;BME280;25422;48.286;8.484;2023-05-11T12:00:07;93811.38;;;10.87;100.00
39739;BME280;25422;48.286;8.484;2023-05-11T12:02:42;93810.41;;;10.50;100.00
39739;BME280;25422;48.286;8.484;2023-05-11T12:05:12;93806.25;;;10.17;100.00
39739;BME280;25422;48.286;8.484;2023-05-11T12:07:46;93803.34;;;9.97;100.00
39739;BME280;25422;48.286;8.484;2023-05-11T12:10:13;93797.75;;;10.00;100.00
39739;BME280;25422;48.286;8.484;2023-05-11T12:12:39;93798.44;;;9.94;100.00
39739;BME280;25422;48.286;8.484;2023-05-11T12:15:06;93795.88;;;10.09;100.00
39739;BME280;25422;48.286;8.484;2023-05-11T12:17:32;93792.41;;;10.55;100.00
39739;BME280;25422;48.286;8.484;2023-05-11T12:20:16;93798.19;;;10.95;100.00
39739;BME280;25422;48.286;8.484;2023-05-11T12:22:42;93789.16;;;11.27;100.00
39739;BME280;25422;48.286;8.484;2023-05-11T12:25:09;93796.84;;;10.99;100.00
39739;BME280;25422;48.286;8.484;2023-05-11T12:27:50;93798.09;;;11.18;100.00
39739;BME280;25422;48.286;8.484;2023-05-11T12:30:23;93788.00;;;11.00;100.00
39739;BME280;25422;48.286;8.484;2023-05-11T12:32:49;93791.78;;;10.83;100.00
39739;BME280;25422;48.286;8.484;2023-05-11T12:35:21;93797.13;;;10.89;100.00
39739;BME280;25422;48.286;8.484;2023-05-11T12:37:46;93792.50;;;10.76;100.00
39739;BME280;25422;48.286;8.484;2023-05-11T12:40:12;93789.59;;;10.56;100.00
39739;BME280;25422;48.286;8.484;2023-05-11T12:42:38;93798.09;;;10.73;100.00
39739;BME280;25422;48.286;8.484;2023-05-11T12:45:04;93785.28;;;11.08;100.00
39739;BME280;25422;48.286;8.484;2023-05-11T12:47:30;93783.16;;;11.34;100.00
39739;BME280;25422;48.286;8.484;2023-05-11T12:49:56;93785.22;;;11.75;100.00
39739;BME280;25422;48.286;8.484;2023-05-11T12:52:22;93787.91;;;12.25;100.00
39739;BME280;25422;48.286;8.484;2023-05-11T12:54:49;93778.31;;;12.32;100.00
39739;BME280;25422;48.286;8.484;2023-05-11T12:57:23;93780.63;;;11.98;100.00
39739;BME280;25422;48.286;8.484;2023-05-11T13:02:49;93783.34;;;11.69;100.00
39739;BME280;25422;48.286;8.484;2023-05-11T13:05:17;93774.19;;;11.43;100.00
39739;BME280;25422;48.286;8.484;2023-05-11T13:07:43;93777.31;;;11.32;100.00
39739;BME280;25422;48.286;8.484;2023-05-11T13:10:11;93779.66;;;11.26;100.00
39739;BME280;25422;48.286;8.484;2023-05-11T13:12:47;93774.09;;;11.00;100.00
39739;BME280;25422;48.286;8.484;2023-05-11T13:15:13;93779.00;;;11.24;100.00
39739;BME280;25422;48.286;8.484;2023-05-11T13:17:41;93773.84;;;11.31;100.00
39739;BME280;25422;48.286;8.484;2023-05-11T13:20:19;93777.47;;;11.45;100.00
39739;BME280;25422;48.286;8.484;2023-05-11T13:22:46;93769.28;;;11.55;100.00
39739;BME280;25422;48.286;8.484;2023-05-11T13:25:18;93768.56;;;11.82;100.00
39739;BME280;25422;48.286;8.484;2023-05-11T13:27:44;93764.28;;;11.38;100.00
39739;BME280;25422;48.286;8.484;2023-05-11T13:30:10;93755.56;;;11.53;100.00
39739;BME280;25422;48.286;8.484;2023-05-11T13:32:36;93759.06;;;11.38;100.00
39739;BME280;25422;48.286;8.484;2023-05-11T13:35:03;93754.19;;;11.57;100.00
39739;BME280;25422;48.286;8.484;2023-05-11T13:37:29;93768.34;;;11.41;100.00
39739;BME280;25422;48.286;8.484;2023-05-11T13:39:54;93775.38;;;11.40;100.00
39739;BME280;25422;48.286;8.484;2023-05-11T13:42:20;93774.28;;;11.50;100.00